Time;durP1;ratioP1;P1;durP2;ratioP2;P2;SDS_P1;SDS_P2;PMS_P1;PMS_P2;Temp;Humidity;BMP_temperature;BMP_pressure;BME280_temperature;BME280_humidity;BME280_pressure;Samples;Min_cycle;Max_cycle;Signal;HPM_P1;HPM_P2
2023/03/01 17:09:50;;;;;;;260.70;44.83;;;;;;;;;;4998587;28;20429;-59
2023/03/01 17:12:15;;;;;;;120.70;13.05;;;;;;;;;;5036861;28;20521;-60
2023/03/01 17:14:41;;;;;;;219.23;19.60;;;;;;;;;;5040034;28;20028;-61
2023/03/01 17:17:10;;;;;;;111.45;13.80;;;;;;;;;;5043123;28;20057;-59
2023/03/01 17:19:39;;;;;;;137.77;14.07;;;;;;;;;;5043057;28;20027;-58
2023/03/01 17:22:05;;;;;;;131.20;14.75;;;;;;;;;;5042815;28;20044;-60
2023/03/01 17:24:37;;;;;;;155.80;14.75;;;;;;;;;;5040300;28;20021;-61
2023/03/01 17:27:02;;;;;;;144.23;15.05;;;;;;;;;;5042872;28;20052;-60
2023/03/01 17:29:27;;;;;;;145.85;14.77;;;;;;;;;;5042808;28;20037;-62
2023/03/01 17:31:56;;;;;;;100.82;13.82;;;;;;;;;;5044942;28;20028;-60
2023/03/01 17:34:22;;;;;;;81.93;12.75;;;;;;;;;;5045538;28;20060;-60
2023/03/01 17:36:49;;;;;;;127.30;14.40;;;;;;;;;;5043298;28;20040;-62
2023/03/01 17:39:14;;;;;;;144.63;15.95;;;;;;;;;;5041846;28;20021;-62
2023/03/01 17:41:40;;;;;;;219.45;19.30;;;;;;;;;;5028851;28;20083;-61
2023/03/01 17:44:05;;;;;;;237.20;22.88;;;;;;;;;;5034605;28;20079;-61
2023/03/01 17:46:30;;;;;;;101.00;14.73;;;;;;;;;;5041720;28;20524;-61
2023/03/01 17:48:55;;;;;;;125.32;10.98;;;;;;;;;;5044689;28;20665;-62
2023/03/01 17:51:21;;;;;;;133.48;16.98;;;;;;;;;;5040846;28;20041;-61
2023/03/01 17:53:46;;;;;;;185.55;22.63;;;;;;;;;;5040834;28;20116;-61
2023/03/01 17:56:11;;;;;;;122.00;16.65;;;;;;;;;;5037592;28;20685;-60
2023/03/01 17:58:38;;;;;;;121.20;19.00;;;;;;;;;;5043288;28;20028;-61
2023/03/01 18:01:11;;;;;;;110.43;16.20;;;;;;;;;;5041865;28;20087;-60
2023/03/01 18:03:36;;;;;;;120.00;17.88;;;;;;;;;;5043427;28;20095;-61
2023/03/01 18:06:02;;;;;;;91.38;17.58;;;;;;;;;;5041561;28;20829;-59
2023/03/01 18:08:27;;;;;;;126.43;20.08;;;;;;;;;;5044524;28;20028;-60
2023/03/01 18:10:58;;;;;;;134.45;18.52;;;;;;;;;;5039643;28;20242;-61
2023/03/01 18:13:25;;;;;;;130.88;18.58;;;;;;;;;;5042769;28;20021;-60
2023/03/01 18:15:50;;;;;;;118.68;17.48;;;;;;;;;;5041968;28;20096;-59
2023/03/01 18:18:15;;;;;;;110.30;18.05;;;;;;;;;;5042137;28;20439;-63
2023/03/01 18:20:40;;;;;;;122.47;14.82;;;;;;;;;;5029240;28;20749;-63
2023/03/01 18:23:06;;;;;;;93.78;19.40;;;;;;;;;;5029840;28;20383;-62
2023/03/01 18:25:31;;;;;;;107.50;17.37;;;;;;;;;;5025074;28;20029;-59
2023/03/01 18:27:56;;;;;;;130.32;18.35;;;;;;;;;;5028983;28;20275;-61
2023/03/01 18:30:22;;;;;;;142.07;16.92;;;;;;;;;;5028817;28;20100;-62
2023/03/01 18:32:47;;;;;;;169.15;16.13;;;;;;;;;;5029330;28;20056;-59
2023/03/01 18:35:12;;;;;;;99.03;16.63;;;;;;;;;;5027509;28;20021;-59
2023/03/01 18:37:37;;;;;;;99.68;17.65;;;;;;;;;;5029602;28;20645;-61
2023/03/01 18:40:03;;;;;;;113.07;19.80;;;;;;;;;;5028054;28;20693;-58
2023/03/01 18:42:28;;;;;;;181.10;20.98;;;;;;;;;;5023454;28;20693;-63
2023/03/01 18:44:54;;;;;;;176.88;16.95;;;;;;;;;;5020982;28;20843;-65
2023/03/01 18:47:19;;;;;;;138.35;18.77;;;;;;;;;;5026877;28;20052;-60
2023/03/01 18:49:44;;;;;;;125.18;16.50;;;;;;;;;;5026963;28;20906;-58
2023/03/01 18:52:10;;;;;;;118.35;18.13;;;;;;;;;;5026814;28;20442;-60
2023/03/01 18:54:35;;;;;;;123.57;18.85;;;;;;;;;;5025243;28;20079;-61
2023/03/01 18:57:00;;;;;;;121.68;19.02;;;;;;;;;;5027656;28;20824;-59
2023/03/01 18:59:25;;;;;;;136.60;18.88;;;;;;;;;;5025740;28;20021;-60
2023/03/01 19:01:51;;;;;;;132.25;18.33;;;;;;;;;;5029750;28;20500;-59
2023/03/01 19:04:16;;;;;;;108.50;16.50;;;;;;;;;;5027575;28;20025;-60
2023/03/01 19:06:41;;;;;;;98.75;17.95;;;;;;;;;;5027822;28;20413;-58
2023/03/01 19:09:07;;;;;;;89.03;16.83;;;;;;;;;;5024589;28;20966;-58
2023/03/01 19:11:34;;;;;;;161.18;21.42;;;;;;;;;;5024743;28;20521;-60
2023/03/01 19:14:00;;;;;;;130.63;18.15;;;;;;;;;;5028637;28;20024;-58
2023/03/01 19:16:27;;;;;;;135.48;19.50;;;;;;;;;;5034422;28;20029;-60
2023/03/01 19:18:54;;;;;;;131.60;18.80;;;;;;;;;;5028261;28;20734;-61
2023/03/01 19:21:20;;;;;;;117.82;16.38;;;;;;;;;;5026961;28;20159;-58
2023/03/01 19:23:47;;;;;;;101.70;18.38;;;;;;;;;;5027640;28;20149;-57
2023/03/01 19:26:13;;;;;;;88.53;13.43;;;;;;;;;;5034001;28;20033;-59
2023/03/01 19:28:39;;;;;;;77.72;15.40;;;;;;;;;;5026602;28;20383;-59
2023/03/01 19:31:09;;;;;;;121.90;16.48;;;;;;;;;;5026287;28;20577;-59
2023/03/01 19:33:34;;;;;;;102.68;9.75;;;;;;;;;;5027299;28;20106;-58
2023/03/01 19:36:01;;;;;;;158.50;18.00;;;;;;;;;;5027118;28;20037;-59
2023/03/01 19:38:26;;;;;;;135.77;16.73;;;;;;;;;;5026714;28;20391;-59
2023/03/01 19:40:52;;;;;;;152.27;16.10;;;;;;;;;;5025823;28;20029;-59
2023/03/01 19:43:17;;;;;;;115.32;17.27;;;;;;;;;;5028044;28;20029;-60
2023/03/01 19:45:42;;;;;;;92.90;17.10;;;;;;;;;;5026121;28;20041;-58
2023/03/01 19:48:07;;;;;;;116.57;15.15;;;;;;;;;;5025969;28;20093;-59
2023/03/01 19:50:33;;;;;;;121.80;16.15;;;;;;;;;;5027835;28;20042;-61
2023/03/01 19:52:58;;;;;;;126.63;15.53;;;;;;;;;;5026357;28;20029;-59
2023/03/01 19:55:23;;;;;;;159.85;18.40;;;;;;;;;;5021547;28;20946;-62
2023/03/01 19:57:48;;;;;;;103.25;14.68;;;;;;;;;;5029261;28;20103;-59
2023/03/01 20:00:14;;;;;;;88.35;15.05;;;;;;;;;;5026229;28;20082;-62
2023/03/01 20:02:39;;;;;;;143.52;17.83;;;;;;;;;;5027373;28;20029;-60
2023/03/01 20:05:05;;;;;;;124.03;18.30;;;;;;;;;;5024826;28;20026;-63
2023/03/01 20:07:30;;;;;;;181.77;19.45;;;;;;;;;;5026470;28;20083;-60
2023/03/01 20:09:55;;;;;;;142.73;17.83;;;;;;;;;;5026207;28;20118;-60
2023/03/01 20:12:20;;;;;;;93.82;15.88;;;;;;;;;;5033597;28;20035;-61
2023/03/01 20:14:47;;;;;;;149.48;17.50;;;;;;;;;;5027069;28;20608;-60
2023/03/01 20:17:12;;;;;;;108.22;16.25;;;;;;;;;;5025838;28;20059;-57
2023/03/01 20:19:38;;;;;;;120.00;16.20;;;;;;;;;;5026502;28;20029;-61
2023/03/01 20:22:03;;;;;;;157.00;20.80;;;;;;;;;;5023915;28;20036;-59
2023/03/01 20:24:30;;;;;;;145.85;19.60;;;;;;;;;;5023629;28;20052;-58
2023/03/01 20:26:56;;;;;;;107.03;16.25;;;;;;;;;;5024572;28;20029;-58
2023/03/01 20:29:21;;;;;;;114.22;16.42;;;;;;;;;;5026439;28;20076;-60
2023/03/01 20:31:46;;;;;;;116.65;16.00;;;;;;;;;;5027677;28;20033;-62
2023/03/01 20:34:12;;;;;;;162.80;18.13;;;;;;;;;;5026419;28;20025;-59
2023/03/01 20:36:38;;;;;;;125.72;17.58;;;;;;;;;;5026607;28;20117;-62
2023/03/01 20:39:03;;;;;;;137.20;21.00;;;;;;;;;;5024884;28;20026;-63
2023/03/01 20:41:28;;;;;;;107.93;15.85;;;;;;;;;;5022488;28;20776;-60
2023/03/01 20:43:55;;;;;;;89.07;15.38;;;;;;;;;;5024305;28;20037;-59
2023/03/01 20:46:22;;;;;;;129.25;18.35;;;;;;;;;;5025448;28;20613;-61
2023/03/01 20:48:49;;;;;;;139.35;18.38;;;;;;;;;;5025876;28;20024;-60
2023/03/01 20:51:14;;;;;;;146.43;20.60;;;;;;;;;;5026574;28;20026;-61
2023/03/01 20:53:39;;;;;;;172.02;17.33;;;;;;;;;;5023769;28;20483;-60
2023/03/01 20:56:06;;;;;;;88.72;16.83;;;;;;;;;;5023595;28;20034;-61
2023/03/01 20:58:32;;;;;;;83.72;14.02;;;;;;;;;;5034848;28;20363;-60
2023/03/01 21:00:58;;;;;;;140.38;16.60;;;;;;;;;;5025996;28;20157;-61
2023/03/01 21:03:23;;;;;;;144.13;17.60;;;;;;;;;;5026209;28;20039;-56
2023/03/01 21:05:48;;;;;;;171.70;21.00;;;;;;;;;;5023568;28;20041;-59
2023/03/01 21:08:13;;;;;;;132.10;18.85;;;;;;;;;;5025778;28;20528;-59
2023/03/01 21:10:39;;;;;;;122.88;20.55;;;;;;;;;;5026531;28;20910;-60
2023/03/01 21:13:04;;;;;;;107.22;21.33;;;;;;;;;;5023612;28;20113;-61
2023/03/01 21:15:29;;;;;;;144.63;17.80;;;;;;;;;;5024386;28;20025;-59
2023/03/01 21:17:54;;;;;;;150.85;18.90;;;;;;;;;;5025968;28;20478;-60
2023/03/01 21:20:20;;;;;;;132.35;16.73;;;;;;;;;;5026375;28;20026;-60
2023/03/01 21:22:45;;;;;;;118.85;13.98;;;;;;;;;;5025692;28;20119;-58
2023/03/01 21:25:10;;;;;;;123.13;22.40;;;;;;;;;;5021072;28;20029;-60
2023/03/01 21:27:36;;;;;;;110.80;17.52;;;;;;;;;;5024430;28;20032;-58
2023/03/01 21:30:02;;;;;;;131.45;17.00;;;;;;;;;;5025852;28;20027;-60
2023/03/01 21:32:27;;;;;;;183.10;20.90;;;;;;;;;;5022843;28;20026;-58
2023/03/01 21:34:52;;;;;;;136.90;18.35;;;;;;;;;;5024408;28;20028;-64
2023/03/01 21:37:21;;;;;;;130.45;21.23;;;;;;;;;;5025363;28;20036;-60
2023/03/01 21:39:46;;;;;;;110.60;19.15;;;;;;;;;;5025258;28;20111;-61
2023/03/01 21:42:11;;;;;;;87.60;14.93;;;;;;;;;;5023943;28;20033;-61
2023/03/01 21:44:36;;;;;;;164.02;21.42;;;;;;;;;;5027380;28;20056;-61
2023/03/01 21:47:02;;;;;;;128.20;18.30;;;;;;;;;;5026625;28;20068;-62
2023/03/01 21:49:27;;;;;;;135.70;16.80;;;;;;;;;;5026301;28;20033;-65
2023/03/01 21:51:52;;;;;;;116.53;13.73;;;;;;;;;;5022823;28;20037;-63
2023/03/01 21:54:18;;;;;;;136.07;14.70;;;;;;;;;;5021376;28;20108;-58
2023/03/01 21:56:44;;;;;;;110.25;16.17;;;;;;;;;;5024969;28;20101;-63
2023/03/01 21:59:12;;;;;;;125.43;15.40;;;;;;;;;;5029396;28;20025;-63
2023/03/01 22:01:37;;;;;;;153.60;15.73;;;;;;;;;;5019056;28;21136;-61
2023/03/01 22:04:03;;;;;;;133.35;18.42;;;;;;;;;;5027961;28;20025;-61
2023/03/01 22:06:39;;;;;;;119.05;18.35;;;;;;;;;;5030505;28;20041;-64
2023/03/01 22:09:12;;;;;;;113.07;16.85;;;;;;;;;;5031584;28;20705;-63
2023/03/01 22:11:38;;;;;;;99.10;15.50;;;;;;;;;;5031782;28;20026;-61
2023/03/01 22:14:04;;;;;;;97.50;16.30;;;;;;;;;;5031799;28;20009;-61
2023/03/01 22:16:30;;;;;;;95.55;18.75;;;;;;;;;;5031169;28;20098;-61
2023/03/01 22:18:56;;;;;;;94.82;14.00;;;;;;;;;;5032324;28;20017;-61
2023/03/01 22:21:23;;;;;;;118.57;18.33;;;;;;;;;;5030910;28;20528;-62
2023/03/01 22:23:48;;;;;;;102.88;16.77;;;;;;;;;;5030439;28;20032;-60
2023/03/01 22:26:23;;;;;;;80.30;11.52;;;;;;;;;;5031613;28;20041;-62
2023/03/01 22:28:48;;;;;;;89.03;17.38;;;;;;;;;;5030539;28;20644;-61
2023/03/01 22:31:13;;;;;;;77.40;11.30;;;;;;;;;;5031610;28;20039;-61
2023/03/01 22:33:38;;;;;;;118.55;17.27;;;;;;;;;;5030169;28;20087;-59
2023/03/01 22:36:04;;;;;;;86.82;13.60;;;;;;;;;;5027386;28;20090;-60
2023/03/01 22:38:29;;;;;;;110.57;18.45;;;;;;;;;;5032029;28;20068;-60
2023/03/01 22:40:55;;;;;;;118.90;15.68;;;;;;;;;;5030370;28;20065;-62
2023/03/01 22:43:20;;;;;;;94.22;18.27;;;;;;;;;;5031677;28;20064;-60
2023/03/01 22:45:46;;;;;;;102.30;18.10;;;;;;;;;;5031144;28;20037;-63
2023/03/01 22:48:11;;;;;;;91.07;16.30;;;;;;;;;;5030575;28;20017;-62
2023/03/01 22:50:36;;;;;;;78.90;13.13;;;;;;;;;;5030821;28;20091;-61
2023/03/01 22:53:01;;;;;;;106.90;14.27;;;;;;;;;;5029099;28;20025;-61
2023/03/01 22:55:27;;;;;;;102.65;17.38;;;;;;;;;;5028948;28;20038;-62
2023/03/01 22:57:52;;;;;;;106.35;16.42;;;;;;;;;;5029342;28;20022;-62
2023/03/01 23:00:17;;;;;;;86.78;11.10;;;;;;;;;;5029760;28;20028;-61
2023/03/01 23:02:43;;;;;;;99.40;17.90;;;;;;;;;;5027348;28;20134;-60
2023/03/01 23:05:08;;;;;;;126.55;20.38;;;;;;;;;;5026031;28;20474;-60
2023/03/01 23:07:34;;;;;;;98.18;17.15;;;;;;;;;;5029285;28;20386;-61
2023/03/01 23:10:01;;;;;;;83.47;17.08;;;;;;;;;;5030091;28;20608;-61
2023/03/01 23:12:26;;;;;;;109.10;17.42;;;;;;;;;;5027996;28;20398;-62
2023/03/01 23:14:51;;;;;;;99.40;17.75;;;;;;;;;;5029309;28;20511;-62
2023/03/01 23:17:17;;;;;;;103.28;13.05;;;;;;;;;;5028584;28;20029;-60
2023/03/01 23:19:42;;;;;;;89.75;15.18;;;;;;;;;;5030019;28;20025;-63
2023/03/01 23:22:07;;;;;;;107.35;16.40;;;;;;;;;;5029719;28;20072;-62
2023/03/01 23:24:33;;;;;;;132.50;18.63;;;;;;;;;;5029869;28;20355;-63
2023/03/01 23:26:58;;;;;;;93.78;17.55;;;;;;;;;;5029860;28;20098;-62
2023/03/01 23:29:24;;;;;;;91.05;17.60;;;;;;;;;;5029642;28;20025;-62
2023/03/01 23:31:49;;;;;;;104.43;18.30;;;;;;;;;;5027482;28;20060;-63
2023/03/01 23:34:14;;;;;;;94.68;17.63;;;;;;;;;;5026519;28;20041;-63
2023/03/01 23:36:43;;;;;;;142.85;18.77;;;;;;;;;;5024029;28;20041;-63
2023/03/01 23:39:10;;;;;;;100.55;12.70;;;;;;;;;;5027130;28;20148;-61
2023/03/01 23:41:35;;;;;;;120.95;20.13;;;;;;;;;;5025358;28;20038;-60
2023/03/01 23:44:01;;;;;;;131.65;18.83;;;;;;;;;;5027964;28;20026;-61
2023/03/01 23:46:28;;;;;;;98.88;16.73;;;;;;;;;;5026447;28;20072;-63
2023/03/01 23:48:54;;;;;;;91.97;14.85;;;;;;;;;;5026655;28;20022;-60
2023/03/01 23:51:20;;;;;;;113.30;17.52;;;;;;;;;;5025814;28;20071;-61
2023/03/01 23:53:52;;;;;;;106.38;15.88;;;;;;;;;;5027959;28;20021;-61
2023/03/01 23:56:19;;;;;;;105.10;15.40;;;;;;;;;;5026614;28;20036;-61
2023/03/01 23:58:44;;;;;;;116.75;14.27;;;;;;;;;;5028025;28;20038;-61
